Time;durP1;ratioP1;P1;durP2;ratioP2;P2;SDS_P1;SDS_P2;PMS_P1;PMS_P2;Temp;Humidity;BMP_temperature;BMP_pressure;BME280_temperature;BME280_humidity;BME280_pressure;Samples;Min_cycle;Max_cycle;Signal;HPM_P1;HPM_P2
2021/11/12 00:13:27;;;;;;;19.45;8.88;;;10.10;99.90;;;;;;5019394;28;20052;-87
2021/11/12 00:16:01;;;;;;;20.30;9.15;;;10.00;99.90;;;;;;5013598;28;20060;-86
2021/11/12 00:18:33;;;;;;;16.88;8.27;;;10.00;99.90;;;;;;5047727;28;20060;-85
2021/11/12 00:21:02;;;;;;;16.58;8.85;;;10.00;99.90;;;;;;5012300;28;20064;-87
2021/11/12 00:23:32;;;;;;;23.75;10.02;;;10.00;99.90;;;;;;5009517;28;20542;-86
2021/11/12 00:26:01;;;;;;;16.63;8.50;;;10.00;99.90;;;;;;5009064;28;20053;-89
2021/11/12 00:28:35;;;;;;;16.70;7.05;;;10.00;99.90;;;;;;5003567;28;20045;-88
2021/11/12 00:31:14;;;;;;;19.02;6.63;;;10.10;99.90;;;;;;5015224;28;20535;-86
2021/11/12 00:39:04;;;;;;;15.13;7.68;;;10.00;99.90;;;;;;5028626;28;20049;-88
2021/11/12 00:41:33;;;;;;;18.90;7.70;;;10.00;99.90;;;;;;5011387;28;20100;-86
2021/11/12 00:44:14;;;;;;;18.38;5.60;;;10.00;99.90;;;;;;5028051;28;20041;-86
2021/11/12 00:49:17;;;;;;;14.65;6.43;;;10.00;99.90;;;;;;5045518;28;20057;-86
2021/11/12 00:51:53;;;;;;;12.50;5.75;;;10.00;99.90;;;;;;5014111;28;20718;-87
2021/11/12 00:54:21;;;;;;;14.55;6.45;;;10.00;99.90;;;;;;4998093;28;20071;-85
2021/11/12 00:56:51;;;;;;;15.50;6.07;;;10.00;99.90;;;;;;5019658;28;20056;-86
2021/11/12 00:59:19;;;;;;;13.70;5.97;;;10.00;99.90;;;;;;5006749;28;20053;-87
2021/11/12 01:01:48;;;;;;;13.82;6.35;;;10.00;99.90;;;;;;5023350;28;20033;-85
2021/11/12 01:04:23;;;;;;;13.30;6.30;;;10.00;99.90;;;;;;5038624;28;21334;-85
2021/11/12 01:06:51;;;;;;;16.83;6.20;;;10.00;99.90;;;;;;5031018;28;20055;-86
2021/11/12 01:09:22;;;;;;;12.43;5.68;;;10.00;99.90;;;;;;5014393;28;20052;-86
2021/11/12 01:11:50;;;;;;;;;;;10.00;99.90;;;;;;5007938;28;20060;-87
2021/11/12 01:14:23;;;;;;;14.95;6.82;;;10.00;99.90;;;;;;5046388;28;20447;-87
2021/11/12 01:16:51;;;;;;;13.05;5.15;;;10.00;99.90;;;;;;5028174;28;20057;-88
2021/11/12 01:19:19;;;;;;;20.65;7.22;;;10.20;99.90;;;;;;5012775;28;20047;-86
2021/11/12 01:21:47;;;;;;;11.70;6.38;;;10.00;99.90;;;;;;5012510;28;20052;-86
2021/11/12 01:24:16;;;;;;;11.48;5.63;;;9.90;99.90;;;;;;5029716;28;20041;-87
2021/11/12 01:26:44;;;;;;;14.98;6.80;;;9.90;99.90;;;;;;4999372;28;20050;-86
2021/11/12 01:29:12;;;;;;;12.85;6.35;;;9.90;99.90;;;;;;4978518;28;20573;-87
2021/11/12 01:31:42;;;;;;;15.55;7.38;;;10.00;99.90;;;;;;4978570;28;20060;-86
2021/11/12 01:34:11;;;;;;;18.90;6.80;;;10.00;99.90;;;;;;4997488;28;20049;-85
2021/11/12 01:36:44;;;;;;;18.73;7.70;;;10.00;99.90;;;;;;5047466;28;20055;-87
2021/11/12 01:39:16;;;;;;;15.13;6.15;;;10.00;99.90;;;;;;5048697;28;20040;-86
2021/11/12 01:41:48;;;;;;;23.67;8.60;;;9.70;99.90;;;;;;5004757;28;20309;-88
2021/11/12 01:44:25;;;;;;;20.80;6.88;;;10.00;99.90;;;;;;5008383;28;20060;-86
2021/11/12 01:47:07;;;;;;;24.83;11.00;;;10.00;99.90;;;;;;5021042;28;20436;-88
2021/11/12 01:49:42;;;;;;;18.50;8.07;;;10.10;99.90;;;;;;4977222;28;20512;-85
2021/11/12 01:59:52;;;;;;;16.63;7.80;;;10.20;99.90;;;;;;5013789;28;20053;-85
2021/11/12 02:02:20;;;;;;;18.00;8.23;;;10.10;99.90;;;;;;5019781;28;20237;-86
2021/11/12 02:04:49;;;;;;;19.83;7.82;;;10.10;99.90;;;;;;5018340;28;20063;-86
2021/11/12 02:07:17;;;;;;;19.17;7.43;;;10.10;99.90;;;;;;5030648;28;20049;-86
2021/11/12 02:09:46;;;;;;;23.85;9.07;;;10.20;99.90;;;;;;5033346;28;20405;-85
2021/11/12 02:12:21;;;;;;;18.13;8.18;;;10.10;99.90;;;;;;5038494;28;20045;-86
2021/11/12 02:14:50;;;;;;;20.52;8.02;;;10.10;99.90;;;;;;5044037;28;20048;-87
2021/11/12 02:17:20;;;;;;;22.95;10.57;;;10.10;99.90;;;;;;5033706;28;20493;-86
2021/11/12 02:20:04;;;;;;;21.38;8.30;;;10.10;99.90;;;;;;5033509;28;20064;-87
2021/11/12 02:22:33;;;;;;;15.90;8.43;;;10.10;99.90;;;;;;5031717;28;20048;-87
2021/11/12 02:25:45;;;;;;;17.83;8.40;;;10.10;99.90;;;;;;4997601;28;20056;-86
2021/11/12 02:27:58;;;;;;;14.95;7.65;;;10.10;99.90;;;;;;5038250;28;20048;-86
2021/11/12 02:30:31;;;;;;;22.55;10.07;;;10.00;99.90;;;;;;5048421;28;20049;-87
2021/11/12 02:33:11;;;;;;;22.10;9.10;;;10.00;99.90;;;;;;4997178;28;20053;-87
2021/11/12 02:35:42;;;;;;;21.48;8.98;;;10.00;99.90;;;;;;5028159;28;20762;-87
2021/11/12 02:38:11;;;;;;;18.63;8.80;;;9.90;99.90;;;;;;5014208;28;20053;-88
2021/11/12 02:40:38;;;;;;;17.45;7.60;;;9.90;99.90;;;;;;5013180;28;20045;-87
2021/11/12 02:43:06;;;;;;;22.05;8.40;;;9.90;99.90;;;;;;5013310;28;20056;-87
2021/11/12 02:45:37;;;;;;;25.88;9.30;;;9.90;99.90;;;;;;4996192;28;20053;-86
2021/11/12 02:48:05;;;;;;;27.67;10.65;;;9.80;99.90;;;;;;5032557;28;20051;-86
2021/11/12 02:50:33;;;;;;;18.38;8.50;;;9.80;99.90;;;;;;5038989;28;20052;-86
2021/11/12 02:53:04;;;;;;;18.38;8.23;;;9.80;99.90;;;;;;5010957;28;20057;-87
2021/11/12 02:55:33;;;;;;;17.88;7.55;;;9.80;99.90;;;;;;4995272;28;20040;-86
2021/11/12 02:58:00;;;;;;;19.15;9.98;;;9.70;99.90;;;;;;5010706;28;20056;-86
2021/11/12 03:00:28;;;;;;;28.90;12.25;;;9.70;99.90;;;;;;5012966;28;20049;-87
2021/11/12 03:02:57;;;;;;;20.02;9.43;;;9.70;99.90;;;;;;5018160;28;20041;-87
2021/11/12 03:05:26;;;;;;;20.90;9.15;;;9.70;99.90;;;;;;5005814;28;20049;-87
2021/11/12 03:07:54;;;;;;;20.88;9.23;;;9.70;99.90;;;;;;5016347;28;20049;-86
2021/11/12 03:10:22;;;;;;;25.80;11.25;;;9.70;99.90;;;;;;5029752;28;20041;-86
2021/11/12 03:12:51;;;;;;;23.08;9.38;;;9.70;99.90;;;;;;4982700;28;20060;-86
2021/11/12 03:15:20;;;;;;;25.30;9.80;;;9.70;99.90;;;;;;5025500;28;20060;-86
2021/11/12 03:17:51;;;;;;;24.90;9.77;;;9.70;99.90;;;;;;5006508;28;20060;-86
2021/11/12 03:20:19;;;;;;;;;;;9.70;99.90;;;;;;4998751;28;20056;-86
2021/11/12 03:22:52;;;;;;;23.50;10.43;;;9.70;99.90;;;;;;4999220;28;20370;-88
2021/11/12 03:49:45;;;;;;;29.13;10.23;;;9.70;99.90;;;;;;5044290;28;20077;-87
2021/11/12 04:03:55;;;;;;;26.45;15.00;;;9.80;99.90;;;;;;5042920;28;20041;-86
2021/11/12 04:20:10;;;;;;;34.10;16.50;;;10.00;99.90;;;;;;5031641;28;20520;-86
2021/11/12 04:50:18;;;;;;;35.17;16.15;;;10.70;99.90;;;;;;5015333;28;20046;-85
2021/11/12 05:45:20;;;;;;;32.22;14.93;;;10.80;99.90;;;;;;5033090;28;20063;-85
2021/11/12 05:56:07;;;;;;;29.13;11.57;;;11.00;99.90;;;;;;5030254;28;20046;-88
2021/11/12 05:58:35;;;;;;;24.50;8.52;;;11.10;99.90;;;;;;5036863;28;20040;-86
2021/11/12 06:01:08;;;;;;;23.73;10.27;;;11.10;99.90;;;;;;5044993;28;20060;-87
2021/11/12 06:03:36;;;;;;;22.33;9.65;;;11.20;99.90;;;;;;5030082;28;20052;-86
2021/11/12 06:06:04;;;;;;;27.30;10.20;;;11.30;99.90;;;;;;4682797;28;9999881;-88
2021/11/12 06:08:32;;;;;;;20.20;8.30;;;11.30;99.90;;;;;;5068323;28;20055;-86
2021/11/12 06:11:00;;;;;;;22.77;9.07;;;11.40;99.90;;;;;;5067040;28;20035;-85
2021/11/12 06:13:28;;;;;;;19.05;8.25;;;11.40;99.90;;;;;;5073227;28;20048;-86
2021/11/12 06:15:56;;;;;;;18.85;8.63;;;11.50;99.90;;;;;;5022561;28;20041;-87
2021/11/12 06:18:24;;;;;;;26.10;8.07;;;11.50;99.90;;;;;;5038892;28;20025;-88
2021/11/12 06:20:52;;;;;;;25.17;9.02;;;11.60;99.90;;;;;;5072887;28;20029;-85
2021/11/12 06:23:20;;;;;;;20.83;7.32;;;11.60;99.90;;;;;;5039479;28;20044;-87
2021/11/12 06:25:48;;;;;;;25.63;8.25;;;10.90;99.90;;;;;;5038582;28;20043;-88
2021/11/12 06:28:16;;;;;;;19.80;8.65;;;11.60;99.90;;;;;;5056031;28;20043;-88
2021/11/12 06:30:44;;;;;;;25.20;10.50;;;11.60;99.90;;;;;;5039116;28;20044;-88
2021/11/12 06:33:12;;;;;;;18.38;6.97;;;11.70;99.90;;;;;;5022272;28;20045;-87
2021/11/12 06:35:39;;;;;;;29.25;8.68;;;11.70;99.90;;;;;;5044042;28;20044;-87
2021/11/12 06:38:07;;;;;;;16.73;7.22;;;11.70;99.90;;;;;;5043120;28;20029;-87
2021/11/12 06:40:34;;;;;;;19.40;7.07;;;11.80;99.90;;;;;;5040871;28;20057;-87
2021/11/12 06:43:21;;;;;;;18.05;6.78;;;11.80;99.90;;;;;;5021651;28;20037;-88
2021/11/12 06:51:23;;;;;;;21.65;7.97;;;11.90;99.90;;;;;;5038223;28;20025;-87
2021/11/12 06:53:52;;;;;;;24.00;8.60;;;11.90;99.90;;;;;;5022274;28;20059;-87
2021/11/12 06:56:21;;;;;;;26.55;8.38;;;12.00;99.90;;;;;;5071530;28;20045;-88
2021/11/12 06:58:51;;;;;;;23.73;8.20;;;12.00;99.90;;;;;;5034887;28;20039;-88
2021/11/12 07:01:19;;;;;;;15.57;8.45;;;11.80;99.90;;;;;;5037889;28;20059;-87
2021/11/12 07:03:47;;;;;;;18.52;6.85;;;11.90;99.90;;;;;;5053224;28;20041;-87
2021/11/12 07:06:15;;;;;;;18.88;7.38;;;12.00;99.90;;;;;;5071360;28;20072;-86
2021/11/12 07:08:43;;;;;;;15.95;8.48;;;12.00;99.90;;;;;;5022647;28;20049;-87
2021/11/12 07:11:12;;;;;;;19.77;7.10;;;12.00;99.90;;;;;;5051699;28;20057;-86
2021/11/12 07:13:40;;;;;;;20.77;8.18;;;12.00;99.90;;;;;;5046815;28;20045;-88
2021/11/12 07:16:08;;;;;;;29.33;8.13;;;12.00;99.90;;;;;;5043296;28;20049;-85
2021/11/12 07:18:36;;;;;;;26.33;9.02;;;12.00;99.90;;;;;;5052396;28;20041;-87
2021/11/12 07:21:04;;;;;;;23.90;10.45;;;12.10;99.90;;;;;;5013447;28;20055;-88
2021/11/12 07:23:54;;;;;;;19.27;9.02;;;12.00;99.90;;;;;;5039413;28;20044;-88
2021/11/12 07:26:22;;;;;;;20.20;6.95;;;12.10;99.90;;;;;;5053325;28;20525;-88
2021/11/12 07:28:51;;;;;;;17.55;7.70;;;12.10;99.90;;;;;;5037857;28;20056;-89
2021/11/12 07:31:41;;;;;;;20.58;7.78;;;12.10;99.90;;;;;;5052208;28;20029;-86
2021/11/12 07:34:11;;;;;;;35.33;8.75;;;12.10;99.90;;;;;;5063329;28;20508;-85
2021/11/12 07:36:47;;;;;;;27.33;8.75;;;12.10;99.90;;;;;;5063563;28;20053;-87
2021/11/12 07:42:07;;;;;;;15.93;6.90;;;12.10;99.90;;;;;;5031176;28;20079;-87
2021/11/12 07:44:41;;;;;;;29.85;8.70;;;12.20;99.90;;;;;;5034080;28;20041;-88
2021/11/12 07:47:17;;;;;;;22.92;6.85;;;11.80;99.90;;;;;;5043363;28;20045;-88
2021/11/12 07:49:49;;;;;;;17.95;6.70;;;12.20;99.90;;;;;;5003308;28;20063;-87
2021/11/12 07:52:20;;;;;;;20.00;7.97;;;12.30;99.90;;;;;;5019136;28;20088;-88
2021/11/12 07:54:49;;;;;;;19.63;10.10;;;12.30;99.90;;;;;;5011799;28;20049;-87
2021/11/12 07:57:17;;;;;;;22.63;7.80;;;12.40;99.90;;;;;;5040179;28;20059;-89
2021/11/12 07:59:45;;;;;;;25.50;8.55;;;12.40;99.90;;;;;;5034330;28;20048;-89
2021/11/12 08:02:14;;;;;;;15.50;8.30;;;12.40;99.90;;;;;;5032892;28;20045;-87
2021/11/12 08:04:44;;;;;;;29.90;9.18;;;12.40;99.90;;;;;;5046557;28;20045;-89
2021/11/12 08:07:12;;;;;;;22.15;7.20;;;12.50;99.90;;;;;;5050998;28;20506;-89
2021/11/12 08:09:52;;;;;;;23.85;6.88;;;12.50;99.90;;;;;;5026107;28;20060;-87
2021/11/12 08:12:27;;;;;;;20.50;8.07;;;12.90;99.90;;;;;;5041974;28;20041;-87
2021/11/12 08:15:11;;;;;;;24.55;9.77;;;12.50;99.90;;;;;;5032160;28;20056;-87
2021/11/12 08:25:45;;;;;;;23.17;10.25;;;12.60;99.90;;;;;;4994171;28;20056;-87
2021/11/12 08:28:41;;;;;;;23.48;8.80;;;12.60;99.90;;;;;;5032445;28;20049;-88
2021/11/12 08:31:21;;;;;;;23.60;7.90;;;12.60;99.90;;;;;;5024342;28;20041;-87
2021/11/12 08:34:01;;;;;;;19.05;8.23;;;12.60;99.90;;;;;;5037881;28;20056;-85
2021/11/12 08:36:47;;;;;;;20.35;8.73;;;12.70;99.90;;;;;;5006404;28;20046;-87
2021/11/12 08:42:08;;;;;;;18.70;8.25;;;12.70;99.90;;;;;;5052463;28;20689;-86
2021/11/12 08:47:24;;;;;;;22.00;8.98;;;12.70;99.90;;;;;;5030165;28;20045;-88
2021/11/12 08:49:53;;;;;;;23.35;10.95;;;12.70;99.90;;;;;;5001759;28;20073;-87
2021/11/12 08:52:23;;;;;;;24.13;9.77;;;12.60;99.90;;;;;;5029910;28;20048;-85
2021/11/12 08:54:52;;;;;;;23.60;9.13;;;12.70;99.90;;;;;;5043600;28;20056;-87
2021/11/12 08:57:20;;;;;;;34.45;15.50;;;12.60;99.90;;;;;;5041237;28;20286;-85
2021/11/12 08:59:51;;;;;;;28.08;9.43;;;12.70;99.90;;;;;;5044566;28;20049;-88
2021/11/12 09:02:25;;;;;;;29.20;12.80;;;12.70;99.90;;;;;;5015689;28;20047;-86
2021/11/12 09:04:55;;;;;;;23.50;10.35;;;13.00;99.90;;;;;;5009274;28;20060;-87
2021/11/12 09:07:27;;;;;;;28.40;10.05;;;12.70;99.90;;;;;;5010716;28;20052;-86
2021/11/12 09:09:56;;;;;;;27.50;11.23;;;12.70;99.90;;;;;;4997931;28;20040;-85
2021/11/12 09:12:27;;;;;;;31.70;9.35;;;12.70;99.90;;;;;;5020211;28;20056;-84
2021/11/12 09:14:56;;;;;;;23.30;8.43;;;12.60;99.90;;;;;;5021037;28;20227;-85
2021/11/12 09:17:29;;;;;;;24.85;8.20;;;12.70;99.90;;;;;;5005548;28;20056;-85
2021/11/12 09:20:11;;;;;;;17.73;8.30;;;12.70;99.90;;;;;;5014138;28;20051;-84
2021/11/12 09:22:39;;;;;;;25.08;8.52;;;12.70;99.90;;;;;;5027915;28;20762;-87
2021/11/12 09:25:08;;;;;;;16.48;6.95;;;12.70;99.90;;;;;;5014043;28;20068;-86
2021/11/12 09:27:36;;;;;;;15.38;7.22;;;12.70;99.90;;;;;;5014385;28;20068;-85
2021/11/12 09:30:13;;;;;;;18.20;7.53;;;12.80;99.90;;;;;;5014679;28;20045;-86
2021/11/12 09:32:41;;;;;;;13.90;6.60;;;12.80;99.90;;;;;;5030380;28;20045;-86
2021/11/12 09:35:10;;;;;;;14.63;6.20;;;12.90;99.90;;;;;;5030263;28;20041;-86
2021/11/12 09:37:38;;;;;;;17.30;5.97;;;12.80;99.90;;;;;;5025310;28;20045;-86
2021/11/12 09:40:07;;;;;;;21.95;5.30;;;13.00;99.90;;;;;;5009436;28;20057;-87
2021/11/12 09:42:37;;;;;;;12.00;5.28;;;13.00;99.90;;;;;;5005617;28;20045;-87
2021/11/12 09:45:12;;;;;;;14.77;5.45;;;13.00;99.90;;;;;;5013627;28;20424;-85
2021/11/12 09:47:42;;;;;;;12.20;5.38;;;13.00;99.90;;;;;;5009345;28;20052;-86
2021/11/12 09:50:17;;;;;;;13.02;5.32;;;13.00;99.90;;;;;;5010894;28;20048;-85
2021/11/12 09:52:46;;;;;;;16.60;5.93;;;13.10;99.90;;;;;;5027240;28;20057;-87
2021/11/12 09:55:14;;;;;;;14.25;6.30;;;13.10;99.90;;;;;;4999918;28;20911;-87
2021/11/12 09:57:43;;;;;;;13.38;4.72;;;13.10;99.90;;;;;;4995343;28;20080;-88
2021/11/12 10:00:14;;;;;;;13.43;6.85;;;13.20;99.90;;;;;;5016801;28;20053;-85
2021/11/12 10:02:45;;;;;;;10.80;4.10;;;13.10;99.90;;;;;;5027930;28;20052;-86
2021/11/12 10:05:29;;;;;;;11.23;4.80;;;13.20;99.90;;;;;;5031111;28;20037;-87
2021/11/12 10:08:01;;;;;;;14.77;3.97;;;13.20;99.90;;;;;;5017568;28;20049;-85
2021/11/12 10:10:29;;;;;;;16.80;6.70;;;13.30;99.90;;;;;;5021000;28;20076;-87
2021/11/12 10:13:00;;;;;;;9.65;4.28;;;13.30;99.90;;;;;;5010036;28;20049;-86
2021/11/12 10:15:30;;;;;;;11.25;4.28;;;13.30;99.90;;;;;;5010032;28;20038;-85
2021/11/12 10:18:10;;;;;;;10.07;3.50;;;13.30;99.90;;;;;;5017135;28;20045;-86
2021/11/12 10:20:57;;;;;;;10.30;4.22;;;13.30;99.90;;;;;;5043189;28;20037;-86
2021/11/12 10:23:30;;;;;;;6.13;2.97;;;13.30;99.90;;;;;;4998795;28;20052;-87
2021/11/12 10:26:06;;;;;;;9.40;3.17;;;13.30;99.90;;;;;;5018482;28;20348;-86
2021/11/12 10:28:40;;;;;;;11.77;4.90;;;13.40;99.90;;;;;;5028204;28;20052;-87
2021/11/12 10:31:20;;;;;;;9.60;3.33;;;13.40;99.90;;;;;;4999757;28;20554;-86
2021/11/12 10:33:50;;;;;;;8.05;3.58;;;13.40;99.90;;;;;;5010959;28;20041;-86
2021/11/12 10:36:19;;;;;;;8.88;3.70;;;13.40;99.90;;;;;;5035143;28;20056;-87
2021/11/12 10:38:49;;;;;;;9.23;4.22;;;13.50;99.90;;;;;;5001603;28;20045;-86
2021/11/12 10:41:22;;;;;;;9.18;3.83;;;13.50;99.90;;;;;;5029295;28;20049;-86
2021/11/12 10:43:52;;;;;;;9.82;4.15;;;13.50;99.90;;;;;;5036670;28;20059;-85
2021/11/12 10:46:44;;;;;;;6.50;3.55;;;13.50;99.90;;;;;;5039718;28;20046;-85
2021/11/12 10:49:25;;;;;;;10.02;3.28;;;13.40;99.90;;;;;;5025106;28;20034;-84
2021/11/12 10:51:54;;;;;;;;;;;13.30;99.90;;;;;;5026739;28;20045;-85
2021/11/12 10:55:08;;;;;;;9.35;3.03;;;13.30;99.90;;;;;;4995230;28;19921;-85
2021/11/12 10:57:33;;;;;;;10.70;3.70;;;13.20;99.90;;;;;;5005026;28;20053;-85
2021/11/12 11:00:22;;;;;;;5.68;3.55;;;13.20;99.90;;;;;;5047523;28;20044;-84
2021/11/12 11:02:55;;;;;;;9.95;3.95;;;13.20;99.90;;;;;;5039551;28;20508;-84
2021/11/12 11:05:43;;;;;;;7.68;3.65;;;13.20;99.90;;;;;;5022002;28;20052;-84
2021/11/12 11:08:20;;;;;;;8.30;4.15;;;13.20;99.90;;;;;;4692558;28;10000397;-85
2021/11/12 11:10:54;;;;;;;9.48;3.70;;;13.20;99.90;;;;;;5027249;28;20504;-85
2021/11/12 11:13:28;;;;;;;5.05;2.80;;;13.10;99.90;;;;;;5024733;28;20392;-84
2021/11/12 11:16:02;;;;;;;9.25;3.47;;;11.90;99.90;;;;;;5042308;28;20037;-86
2021/11/12 11:18:39;;;;;;;5.07;2.88;;;13.70;99.90;;;;;;5025077;28;20049;-85
2021/11/12 11:21:13;;;;;;;7.18;2.78;;;13.40;99.90;;;;;;5010557;28;20040;-84
2021/11/12 11:23:46;;;;;;;7.25;2.42;;;13.50;99.90;;;;;;5027345;28;20048;-84
2021/11/12 11:26:18;;;;;;;8.90;2.88;;;13.50;99.90;;;;;;5042925;28;20060;-86
2021/11/12 11:28:49;;;;;;;12.40;2.67;;;13.50;99.90;;;;;;5026550;28;20060;-84
2021/11/12 11:31:18;;;;;;;6.70;2.45;;;13.60;99.90;;;;;;5025106;28;20053;-83
2021/11/12 11:33:48;;;;;;;6.38;2.40;;;13.60;99.90;;;;;;5047072;28;20033;-85
2021/11/12 11:36:21;;;;;;;7.18;2.67;;;13.70;99.90;;;;;;5025974;28;20044;-84
2021/11/12 11:38:51;;;;;;;5.78;2.20;;;13.70;99.90;;;;;;5038716;28;20052;-84
2021/11/12 11:41:23;;;;;;;5.60;2.60;;;13.70;99.90;;;;;;5028024;28;20048;-85
2021/11/12 11:43:51;;;;;;;7.25;2.53;;;13.40;99.90;;;;;;5042405;28;20120;-85
2021/11/12 11:46:28;;;;;;;8.43;2.97;;;13.90;99.90;;;;;;5041871;28;20040;-85
2021/11/12 11:49:00;;;;;;;11.13;2.75;;;14.00;99.90;;;;;;5043736;28;20049;-85
2021/11/12 11:51:37;;;;;;;7.25;2.53;;;14.10;99.90;;;;;;5036794;28;20636;-86
2021/11/12 11:54:12;;;;;;;6.57;2.55;;;14.20;99.90;;;;;;5027703;28;20044;-84
2021/11/12 11:56:42;;;;;;;8.38;3.38;;;15.10;99.90;;;;;;5048339;28;20044;-85
2021/11/12 11:59:29;;;;;;;6.43;2.10;;;14.40;99.90;;;;;;5046648;28;20052;-86
2021/11/12 12:02:03;;;;;;;5.47;2.20;;;14.40;99.90;;;;;;5047079;28;20044;-84
2021/11/12 12:04:35;;;;;;;11.40;2.42;;;14.40;99.90;;;;;;5053823;28;20056;-85
2021/11/12 12:07:10;;;;;;;4.72;1.90;;;14.50;99.90;;;;;;5035970;28;20044;-85
2021/11/12 12:09:59;;;;;;;8.02;2.40;;;14.60;99.90;;;;;;5026673;28;20064;-86
2021/11/12 12:12:30;;;;;;;11.18;2.50;;;14.60;99.90;;;;;;5058579;28;20044;-85
2021/11/12 12:15:04;;;;;;;8.15;3.78;;;14.50;99.90;;;;;;5059424;28;20040;-85
2021/11/12 12:17:35;;;;;;;19.05;4.63;;;14.50;99.90;;;;;;5029125;28;20068;-86
2021/11/12 12:35:07;;;;;;;13.63;3.28;;;14.70;99.90;;;;;;5045492;28;20068;-86
2021/11/12 12:41:30;;;;;;;21.95;5.10;;;14.80;99.90;;;;;;5008734;28;20041;-84
2021/11/12 13:24:17;;;;;;;22.88;6.47;;;14.90;99.90;;;;;;4999448;28;20052;-85
2021/11/12 13:27:07;;;;;;;19.20;4.82;;;15.00;99.90;;;;;;5056718;28;20052;-85
2021/11/12 13:29:37;;;;;;;25.55;6.57;;;15.00;99.90;;;;;;5056699;28;20053;-84
2021/11/12 13:32:06;;;;;;;14.88;3.90;;;15.10;99.90;;;;;;5054748;28;20048;-85
2021/11/12 13:34:44;;;;;;;25.42;6.88;;;15.00;99.90;;;;;;5027113;28;20049;-85
2021/11/12 13:37:14;;;;;;;24.02;5.60;;;15.00;99.90;;;;;;5039794;28;20044;-87
2021/11/12 13:39:43;;;;;;;33.03;6.07;;;15.00;99.90;;;;;;5035626;28;20059;-85
2021/11/12 13:42:11;;;;;;;36.33;6.07;;;15.00;99.90;;;;;;5052738;28;20603;-84
2021/11/12 13:44:40;;;;;;;34.30;7.53;;;15.00;99.90;;;;;;5033608;28;20052;-85
2021/11/12 13:47:15;;;;;;;23.33;5.80;;;15.00;99.90;;;;;;5051605;28;20053;-85
2021/11/12 13:49:48;;;;;;;39.60;6.53;;;14.90;99.90;;;;;;5035688;28;20053;-84
2021/11/12 13:52:17;;;;;;;23.92;6.13;;;14.90;99.90;;;;;;5049972;28;20045;-84
2021/11/12 13:54:51;;;;;;;25.52;7.60;;;14.90;99.90;;;;;;5054720;28;20052;-87
2021/11/12 13:57:24;;;;;;;31.58;8.32;;;14.90;99.90;;;;;;5031923;28;20053;-86
2021/11/12 13:59:57;;;;;;;24.85;5.65;;;14.90;99.90;;;;;;5007143;28;20547;-86
2021/11/12 14:02:26;;;;;;;37.92;7.07;;;14.90;99.90;;;;;;5015499;28;20052;-86
2021/11/12 14:08:12;;;;;;;22.45;5.03;;;14.80;99.90;;;;;;4716089;28;9999603;-84
2021/11/12 14:10:46;;;;;;;26.33;6.72;;;14.80;99.90;;;;;;5041985;28;20059;-85
2021/11/12 14:13:17;;;;;;;37.63;7.65;;;14.70;99.90;;;;;;5053066;28;20032;-86
2021/11/12 14:18:56;;;;;;;39.17;8.13;;;14.70;99.90;;;;;;5060668;28;20051;-85
2021/11/12 14:24:49;;;;;;;39.30;10.57;;;14.90;99.90;;;;;;5043002;28;20048;-86
2021/11/12 14:27:25;;;;;;;30.95;9.45;;;14.90;99.90;;;;;;5026436;28;20048;-86
2021/11/12 14:33:04;;;;;;;35.55;9.15;;;14.80;99.90;;;;;;5060984;28;20250;-85
2021/11/12 14:36:14;;;;;;;32.63;8.70;;;14.80;99.90;;;;;;5011572;28;20060;-86
2021/11/12 14:38:35;;;;;;;36.17;7.97;;;14.70;99.90;;;;;;5021353;28;20067;-85
2021/11/12 14:46:38;;;;;;;21.40;6.53;;;14.60;99.90;;;;;;5031004;28;20060;-86
2021/11/12 14:52:09;;;;;;;27.27;7.60;;;14.50;99.90;;;;;;5054163;28;20048;-85
2021/11/12 14:54:52;;;;;;;40.90;11.85;;;14.50;99.90;;;;;;5037895;28;20052;-87
2021/11/12 14:59:55;;;;;;;41.45;8.65;;;14.50;99.90;;;;;;5069593;28;20060;-87
2021/11/12 15:02:29;;;;;;;37.92;10.95;;;14.30;99.90;;;;;;5028872;28;20056;-86
2021/11/12 15:04:59;;;;;;;32.88;8.10;;;14.40;99.90;;;;;;5037363;28;20049;-86
2021/11/12 15:07:31;;;;;;;34.85;10.50;;;14.40;99.90;;;;;;5054714;28;20049;-86
2021/11/12 15:09:59;;;;;;;47.20;11.52;;;14.30;99.90;;;;;;5047949;28;20040;-87
2021/11/12 15:12:28;;;;;;;37.22;10.45;;;14.20;99.90;;;;;;5049790;28;20075;-86
2021/11/12 15:15:00;;;;;;;46.85;11.63;;;14.20;99.90;;;;;;5051788;28;20044;-86
2021/11/12 15:17:29;;;;;;;45.53;10.75;;;14.10;99.90;;;;;;5019313;28;20052;-84
2021/11/12 15:19:58;;;;;;;45.63;13.75;;;14.00;99.90;;;;;;5033464;28;20045;-85
2021/11/12 15:30:28;;;;;;;54.00;16.73;;;13.60;99.90;;;;;;5018828;28;20073;-86
2021/11/12 15:33:17;;;;;;;42.65;10.90;;;13.50;99.90;;;;;;5012443;28;20056;-86
2021/11/12 15:35:47;;;;;;;39.22;9.43;;;13.40;99.90;;;;;;5014067;28;20436;-86
2021/11/12 15:38:23;;;;;;;42.42;11.00;;;13.30;99.90;;;;;;4999495;28;20407;-87
2021/11/12 15:41:04;;;;;;;47.85;12.50;;;13.60;99.90;;;;;;5025567;28;20045;-86
2021/11/12 15:43:52;;;;;;;40.10;9.07;;;13.20;99.90;;;;;;5041946;28;20784;-86
2021/11/12 15:46:31;;;;;;;38.40;10.00;;;13.20;99.90;;;;;;5055010;28;20041;-87
2021/11/12 15:48:59;;;;;;;50.72;12.15;;;13.20;99.90;;;;;;5030580;28;20289;-87
2021/11/12 15:54:42;;;;;;;38.95;11.13;;;13.10;99.90;;;;;;5011236;28;20049;-87
2021/11/12 16:00:21;;;;;;;22.52;5.40;;;13.20;99.90;;;;;;4950225;28;20055;-88
2021/11/12 16:08:25;;;;;;;41.40;10.88;;;13.00;99.90;;;;;;5028168;28;20045;-88
2021/11/12 16:17:17;;;;;;;26.73;7.00;;;12.40;99.90;;;;;;5020748;28;20060;-85
2021/11/12 16:25:19;;;;;;;28.33;8.00;;;13.00;99.90;;;;;;5045284;28;20052;-86
2021/11/12 16:27:51;;;;;;;26.23;7.50;;;12.90;99.90;;;;;;5018221;28;20053;-88
2021/11/12 16:30:23;;;;;;;40.33;9.73;;;12.80;99.90;;;;;;5028321;28;20051;-87
2021/11/12 16:32:55;;;;;;;33.15;7.10;;;12.80;99.90;;;;;;5003015;28;20056;-87
2021/11/12 16:35:25;;;;;;;31.38;7.25;;;12.80;99.90;;;;;;5021627;28;20057;-87
2021/11/12 16:38:03;;;;;;;32.75;6.90;;;12.80;99.90;;;;;;5023794;28;20056;-87
2021/11/12 16:40:41;;;;;;;28.30;6.45;;;13.40;99.90;;;;;;5025554;28;20052;-86
2021/11/12 16:45:57;;;;;;;33.90;9.43;;;12.80;99.90;;;;;;5045102;28;20047;-88
2021/11/12 17:04:18;;;;;;;37.30;9.57;;;12.90;99.90;;;;;;5028745;28;20056;-86
2021/11/12 17:06:54;;;;;;;29.40;7.95;;;12.90;99.90;;;;;;5015109;28;20135;-85
2021/11/12 17:15:03;;;;;;;42.83;9.40;;;12.90;99.90;;;;;;5029600;28;20511;-86
2021/11/12 17:18:02;;;;;;;31.60;7.20;;;12.90;99.90;;;;;;5062402;28;20567;-86
2021/11/12 17:45:20;;;;;;;29.70;8.30;;;12.70;99.90;;;;;;5045982;28;20778;-87
2021/11/12 17:47:45;;;;;;;28.95;9.52;;;12.80;99.90;;;;;;5056658;28;20045;-87
2021/11/12 18:03:58;;;;;;;23.65;6.53;;;12.30;99.90;;;;;;5038746;28;20045;-85
2021/11/12 18:06:32;;;;;;;26.92;6.63;;;12.80;99.90;;;;;;5034780;28;20044;-88
2021/11/12 18:15:19;;;;;;;26.17;5.50;;;12.70;99.90;;;;;;5035292;28;20377;-88
2021/11/12 21:46:55;;;;;;;13.70;3.28;;;12.50;99.90;;;;;;5015157;28;20136;-87
2021/11/12 21:49:27;;;;;;;12.40;3.75;;;12.50;99.90;;;;;;5009104;28;20357;-87
2021/11/12 21:51:58;;;;;;;4.25;1.75;;;12.50;99.90;;;;;;5027912;28;20052;-87
2021/11/12 21:54:31;;;;;;;9.60;1.90;;;12.50;99.90;;;;;;5020525;28;20056;-87
2021/11/12 21:57:00;;;;;;;6.50;1.75;;;12.50;99.90;;;;;;5026250;28;20063;-87
2021/11/12 21:59:29;;;;;;;6.88;1.83;;;12.50;99.90;;;;;;5058798;28;20044;-86
2021/11/12 22:01:58;;;;;;;7.70;1.65;;;12.50;99.90;;;;;;5046970;28;20051;-87
2021/11/12 22:04:28;;;;;;;7.53;2.38;;;12.50;99.90;;;;;;5028460;28;20408;-88
2021/11/12 22:06:57;;;;;;;6.53;2.38;;;12.50;99.90;;;;;;5045800;28;20067;-90
2021/11/12 22:09:25;;;;;;;10.10;1.98;;;12.50;99.90;;;;;;5010219;28;20041;-86
2021/11/12 22:11:53;;;;;;;7.18;1.95;;;12.50;99.90;;;;;;5028564;28;20058;-87
2021/11/12 22:14:23;;;;;;;5.03;1.77;;;12.50;99.90;;;;;;5024666;28;20048;-86
2021/11/12 22:16:51;;;;;;;13.73;2.13;;;12.50;99.90;;;;;;5017888;28;20408;-86
2021/11/12 22:19:19;;;;;;;15.82;2.53;;;13.10;99.90;;;;;;5025820;28;20624;-87
2021/11/12 22:21:47;;;;;;;5.63;2.35;;;12.50;99.90;;;;;;5038635;28;20041;-86
2021/11/12 22:24:15;;;;;;;13.82;4.22;;;12.50;99.90;;;;;;5035996;28;20052;-86
2021/11/12 22:26:46;;;;;;;14.85;3.08;;;12.50;99.90;;;;;;5018066;28;20040;-88
2021/11/12 22:29:15;;;;;;;7.22;2.60;;;12.50;99.90;;;;;;5018454;28;20686;-86
2021/11/12 22:31:44;;;;;;;7.35;2.50;;;12.50;99.90;;;;;;5047277;28;20052;-86
2021/11/12 22:34:33;;;;;;;8.77;2.28;;;12.50;99.90;;;;;;5048509;28;20056;-86
2021/11/12 22:37:01;;;;;;;8.00;2.55;;;12.50;99.90;;;;;;5066785;28;20052;-86
2021/11/12 22:39:29;;;;;;;7.43;2.30;;;12.50;99.90;;;;;;5044314;28;20500;-86
2021/11/12 22:41:59;;;;;;;11.43;3.17;;;12.50;99.90;;;;;;5029749;28;20127;-86
2021/11/12 22:44:27;;;;;;;14.75;3.13;;;12.50;99.90;;;;;;5010203;28;20048;-87